Time;durP1;ratioP1;P1;durP2;ratioP2;P2;SDS_P1;SDS_P2;PMS_P1;PMS_P2;Temp;Humidity;BMP_temperature;BMP_pressure;BME280_temperature;BME280_humidity;BME280_pressure;Samples;Min_cycle;Max_cycle;Signal;HPM_P1;HPM_P2
2022/08/14 00:01:08;;;;;;;5.40;4.90;;;18.70;99.90;;;;;;5015994;28;20214;-66
2022/08/14 00:03:33;;;;;;;4.23;3.93;;;18.70;99.60;;;;;;5015823;28;20171;-66
2022/08/14 00:06:00;;;;;;;6.00;5.60;;;18.70;99.90;;;;;;5015818;28;20199;-66
2022/08/14 00:08:26;;;;;;;5.63;4.60;;;18.80;99.90;;;;;;5015343;28;20167;-65
2022/08/14 00:10:52;;;;;;;4.77;4.43;;;18.70;99.90;;;;;;5015710;28;20417;-67
2022/08/14 00:13:22;;;;;;;5.10;4.70;;;18.70;99.90;;;;;;5015617;28;20508;-67
2022/08/14 00:15:48;;;;;;;5.23;4.83;;;19.40;99.90;;;;;;5015593;28;20943;-65
2022/08/14 00:18:20;;;;;;;5.33;4.93;;;18.60;99.90;;;;;;5015138;28;20476;-65
2022/08/14 00:20:46;;;;;;;5.60;5.20;;;18.60;99.90;;;;;;5015660;28;20823;-63
2022/08/14 00:23:13;;;;;;;4.90;4.50;;;18.50;99.90;;;;;;5015538;28;20468;-63
2022/08/14 00:25:39;;;;;;;4.70;4.40;;;18.30;99.90;;;;;;5015357;28;20548;-63
2022/08/14 00:28:08;;;;;;;6.60;5.20;;;18.30;99.90;;;;;;5015294;28;20508;-65
2022/08/14 00:30:35;;;;;;;5.23;4.73;;;18.30;99.90;;;;;;5014829;28;20479;-65
2022/08/14 00:33:01;;;;;;;5.37;4.93;;;18.30;99.90;;;;;;5015298;28;20453;-65
2022/08/14 00:35:27;;;;;;;5.33;5.03;;;18.40;99.90;;;;;;5015117;28;20943;-65
2022/08/14 00:37:52;;;;;;;4.93;4.50;;;18.40;99.90;;;;;;5015131;28;20475;-65
2022/08/14 00:40:19;;;;;;;5.03;4.63;;;18.40;99.90;;;;;;5014751;28;20186;-63
2022/08/14 00:42:47;;;;;;;5.70;5.20;;;18.40;99.90;;;;;;5015199;28;20181;-67
2022/08/14 00:45:14;;;;;;;4.60;4.20;;;18.30;99.90;;;;;;5014992;28;20441;-66
2022/08/14 00:47:45;;;;;;;4.50;4.20;;;18.20;99.90;;;;;;5015133;28;20484;-67
2022/08/14 00:50:14;;;;;;;4.87;4.57;;;18.10;99.90;;;;;;5014456;28;20796;-66
2022/08/14 00:52:40;;;;;;;5.33;4.60;;;18.10;99.90;;;;;;5014926;28;20433;-67
2022/08/14 00:55:07;;;;;;;5.40;5.00;;;18.10;99.90;;;;;;5014911;28;20975;-67
2022/08/14 00:57:34;;;;;;;6.33;5.47;;;18.10;99.90;;;;;;5014812;28;20163;-67
2022/08/14 01:00:01;;;;;;;5.27;4.77;;;18.10;99.90;;;;;;5014240;28;20422;-66
2022/08/14 01:02:27;;;;;;;5.37;4.97;;;18.10;99.90;;;;;;5014779;28;20426;-66
2022/08/14 01:04:56;;;;;;;6.03;5.63;;;18.10;99.90;;;;;;5014722;28;20448;-67
2022/08/14 01:07:23;;;;;;;6.77;6.10;;;18.10;99.90;;;;;;5014518;28;20469;-67
2022/08/14 01:09:54;;;;;;;5.70;5.33;;;18.00;99.90;;;;;;5014103;28;20425;-65
2022/08/14 01:12:21;;;;;;;5.80;5.40;;;18.10;99.90;;;;;;5014592;28;20437;-64
2022/08/14 01:14:53;;;;;;;5.97;5.53;;;18.10;99.90;;;;;;5014456;28;20848;-67
2022/08/14 01:17:23;;;;;;;5.87;5.17;;;18.00;99.90;;;;;;5014557;28;20848;-64
2022/08/14 01:22:34;;;;;;;4.93;4.63;;;18.10;99.90;;;;;;5014389;28;20413;-64
2022/08/14 01:25:00;;;;;;;5.60;5.10;;;18.10;99.90;;;;;;5014167;28;20437;-67
2022/08/14 01:27:27;;;;;;;4.70;4.40;;;17.90;99.90;;;;;;5014277;28;20538;-67
2022/08/14 01:29:55;;;;;;;6.20;5.23;;;17.90;99.90;;;;;;5013804;28;20170;-66
2022/08/14 01:32:21;;;;;;;5.53;5.07;;;17.80;99.90;;;;;;5014108;28;20929;-66
2022/08/14 01:34:49;;;;;;;4.90;4.40;;;17.80;99.90;;;;;;5013976;28;20807;-67
2022/08/14 01:37:15;;;;;;;5.33;4.93;;;17.70;99.90;;;;;;5014098;28;20418;-67
2022/08/14 01:39:41;;;;;;;5.07;4.77;;;17.80;99.90;;;;;;5013554;28;20428;-67
2022/08/14 01:42:07;;;;;;;5.93;5.43;;;17.70;99.90;;;;;;5014015;28;20186;-66
2022/08/14 01:44:33;;;;;;;5.60;5.27;;;17.70;99.90;;;;;;5012671;28;20491;-67
2022/08/14 01:47:01;;;;;;;5.77;5.37;;;17.70;99.90;;;;;;5013905;28;20450;-66
2022/08/14 01:49:27;;;;;;;5.67;5.27;;;17.70;99.90;;;;;;5013584;28;20178;-68
2022/08/14 01:51:55;;;;;;;6.70;5.77;;;17.70;99.90;;;;;;5013848;28;20418;-67
2022/08/14 01:54:22;;;;;;;5.40;4.93;;;17.70;99.90;;;;;;5013638;28;20225;-67
2022/08/14 01:56:55;;;;;;;5.20;4.77;;;17.70;99.90;;;;;;5013737;28;20433;-67
2022/08/14 01:59:33;;;;;;;5.83;5.33;;;17.70;99.90;;;;;;5013201;28;20499;-66
2022/08/14 02:02:11;;;;;;;4.80;4.50;;;17.70;99.90;;;;;;5013664;28;20862;-66
2022/08/14 02:04:37;;;;;;;5.40;5.00;;;17.60;99.90;;;;;;5013488;28;20445;-67
2022/08/14 02:07:04;;;;;;;5.27;4.80;;;17.60;99.90;;;;;;5012648;28;20509;-67
2022/08/14 02:09:34;;;;;;;5.87;5.40;;;17.60;99.90;;;;;;5012995;28;20938;-66
2022/08/14 02:12:01;;;;;;;4.80;4.40;;;17.60;99.90;;;;;;5013426;28;20418;-67
2022/08/14 02:14:26;;;;;;;5.60;5.20;;;17.50;99.90;;;;;;5013371;28;20429;-66
2022/08/14 02:16:52;;;;;;;5.00;4.70;;;17.40;99.90;;;;;;5013370;28;20424;-67
2022/08/14 02:19:24;;;;;;;5.30;4.90;;;17.40;99.90;;;;;;5012881;28;20640;-66
2022/08/14 02:21:53;;;;;;;5.50;5.20;;;17.50;99.90;;;;;;5013322;28;20250;-67
2022/08/14 02:24:20;;;;;;;5.97;5.47;;;17.50;99.90;;;;;;5012176;28;20810;-64
2022/08/14 02:26:48;;;;;;;6.47;5.87;;;17.50;99.90;;;;;;5011849;28;20458;-68
2022/08/14 02:29:16;;;;;;;5.37;4.87;;;17.50;99.90;;;;;;5012743;28;20484;-67
2022/08/14 02:31:46;;;;;;;6.10;5.57;;;17.50;99.90;;;;;;5013087;28;20437;-66
2022/08/14 02:34:17;;;;;;;5.83;5.40;;;17.40;99.90;;;;;;5012929;28;20438;-67
2022/08/14 02:36:44;;;;;;;5.40;5.10;;;17.40;99.90;;;;;;5013028;28;20418;-67
2022/08/14 02:39:12;;;;;;;5.53;5.13;;;17.40;99.90;;;;;;5012505;28;20765;-66
2022/08/14 02:41:37;;;;;;;5.13;4.70;;;17.30;99.90;;;;;;5012987;28;20832;-67
2022/08/14 02:44:05;;;;;;;4.97;4.57;;;17.30;99.90;;;;;;5013013;28;20445;-66
2022/08/14 02:46:30;;;;;;;5.00;4.70;;;17.20;99.90;;;;;;5013013;28;20616;-67
2022/08/14 02:48:57;;;;;;;5.53;5.10;;;17.20;99.90;;;;;;5012356;28;20418;-67
2022/08/14 02:51:23;;;;;;;6.17;5.77;;;17.20;99.90;;;;;;5012812;28;20171;-67
2022/08/14 02:53:49;;;;;;;6.17;5.50;;;17.20;99.90;;;;;;5012463;28;20737;-67
2022/08/14 02:56:18;;;;;;;5.00;4.50;;;17.10;99.90;;;;;;5012818;28;21005;-67
2022/08/14 02:58:47;;;;;;;6.40;6.00;;;17.10;99.90;;;;;;5012321;28;20428;-65
2022/08/14 03:01:15;;;;;;;5.20;4.80;;;17.10;99.90;;;;;;5012756;28;20835;-66
2022/08/14 03:03:42;;;;;;;6.00;5.10;;;17.20;99.90;;;;;;5012490;28;20976;-62
2022/08/14 03:06:08;;;;;;;5.20;4.90;;;17.20;99.90;;;;;;5012482;28;20990;-65
2022/08/14 03:08:36;;;;;;;5.60;5.10;;;17.20;99.90;;;;;;5012301;28;20472;-64
2022/08/14 03:11:05;;;;;;;5.23;4.93;;;17.30;99.90;;;;;;5012518;28;20476;-64
2022/08/14 03:13:34;;;;;;;5.63;4.93;;;17.20;99.90;;;;;;5012446;28;20418;-67
2022/08/14 03:16:00;;;;;;;5.07;4.57;;;17.20;99.90;;;;;;5012398;28;20442;-66
2022/08/14 03:18:27;;;;;;;6.53;5.93;;;17.20;99.90;;;;;;5011731;28;20577;-64
2022/08/14 03:20:52;;;;;;;5.33;4.93;;;17.10;99.90;;;;;;5012326;28;20422;-64
2022/08/14 03:23:19;;;;;;;4.97;4.57;;;17.10;99.90;;;;;;5012303;28;20957;-66
2022/08/14 03:25:45;;;;;;;5.53;5.13;;;17.10;99.90;;;;;;5012189;28;20199;-66
2022/08/14 03:28:12;;;;;;;5.57;5.13;;;17.10;99.90;;;;;;5011947;28;20414;-67
2022/08/14 03:30:38;;;;;;;5.27;4.90;;;17.10;99.90;;;;;;5012229;28;20468;-67
2022/08/14 03:33:05;;;;;;;6.40;5.90;;;17.10;99.90;;;;;;5012251;28;20834;-67
2022/08/14 03:35:32;;;;;;;5.83;5.33;;;17.10;99.90;;;;;;5012177;28;20474;-66
2022/08/14 03:38:11;;;;;;;6.30;5.63;;;17.10;99.90;;;;;;5012245;28;20466;-67
2022/08/14 03:40:40;;;;;;;5.53;5.03;;;17.00;99.90;;;;;;5012091;28;20426;-67
2022/08/14 03:43:07;;;;;;;4.90;4.60;;;17.00;99.90;;;;;;5012136;28;20885;-66
2022/08/14 03:45:38;;;;;;;5.30;4.90;;;17.00;99.90;;;;;;5011966;28;20464;-67
2022/08/14 03:48:14;;;;;;;5.20;4.90;;;17.00;99.90;;;;;;5012030;28;20417;-67
2022/08/14 03:50:43;;;;;;;5.20;4.80;;;17.00;99.90;;;;;;5012070;28;20417;-66
2022/08/14 03:53:09;;;;;;;6.40;5.80;;;17.00;99.90;;;;;;5012059;28;20413;-66
2022/08/14 03:55:37;;;;;;;5.73;4.73;;;17.00;99.90;;;;;;5011889;28;20457;-67
2022/08/14 03:58:02;;;;;;;4.37;4.00;;;16.90;99.90;;;;;;5011936;28;20468;-66
2022/08/14 04:00:28;;;;;;;8.20;4.73;;;17.00;99.90;;;;;;5011472;28;20417;-67
2022/08/14 04:02:54;;;;;;;5.60;5.20;;;16.90;99.90;;;;;;5011979;28;20186;-67
2022/08/14 04:05:19;;;;;;;4.73;4.43;;;16.80;99.90;;;;;;5011879;28;20191;-66
2022/08/14 04:07:45;;;;;;;4.60;4.30;;;16.80;99.90;;;;;;5011936;28;20182;-67
2022/08/14 04:10:11;;;;;;;4.83;4.43;;;16.90;99.90;;;;;;5011390;28;20182;-64
2022/08/14 04:12:37;;;;;;;5.37;4.97;;;16.90;99.90;;;;;;5011875;28;20178;-67
2022/08/14 04:15:04;;;;;;;5.70;5.20;;;16.90;99.90;;;;;;5011723;28;20199;-66
2022/08/14 04:17:31;;;;;;;7.90;4.90;;;16.90;99.90;;;;;;5011808;28;20217;-67
2022/08/14 04:19:58;;;;;;;5.80;5.30;;;16.80;99.90;;;;;;5011365;28;20489;-66
2022/08/14 04:22:24;;;;;;;5.80;5.30;;;16.80;99.90;;;;;;5010693;28;20422;-66
2022/08/14 04:24:51;;;;;;;5.30;4.93;;;16.80;99.90;;;;;;5011567;28;20597;-67
2022/08/14 04:27:17;;;;;;;6.40;4.83;;;16.80;99.90;;;;;;5011682;28;20194;-67
2022/08/14 04:29:43;;;;;;;6.33;5.83;;;16.80;99.90;;;;;;5012756;28;20417;-67
2022/08/14 04:32:10;;;;;;;6.13;5.20;;;16.70;99.90;;;;;;5015369;28;20673;-67
2022/08/14 04:34:40;;;;;;;6.00;5.50;;;16.80;99.90;;;;;;5015238;28;20441;-67
2022/08/14 04:45:22;;;;;;;5.83;5.10;;;17.10;99.90;;;;;;5015142;28;21008;-67
2022/08/14 04:50:34;;;;;;;8.40;7.70;;;17.20;99.90;;;;;;5014901;28;20489;-65
2022/08/14 04:53:01;;;;;;;7.70;7.00;;;17.30;99.90;;;;;;5014947;28;20451;-64
2022/08/14 04:55:27;;;;;;;6.67;6.17;;;17.50;99.90;;;;;;5014815;28;20843;-63
2022/08/14 04:57:52;;;;;;;6.57;6.17;;;17.70;99.90;;;;;;5014816;28;20499;-64
2022/08/14 05:00:18;;;;;;;5.47;5.07;;;18.00;99.90;;;;;;5014388;28;20421;-64
2022/08/14 05:02:44;;;;;;;4.73;4.43;;;18.10;99.90;;;;;;5014920;28;20182;-64
2022/08/14 05:05:10;;;;;;;5.40;5.03;;;18.20;99.90;;;;;;5014435;28;20613;-67
2022/08/14 05:07:36;;;;;;;5.30;5.00;;;18.40;99.90;;;;;;5014717;28;20201;-67
2022/08/14 05:10:03;;;;;;;5.30;4.80;;;18.60;99.90;;;;;;5014234;28;20197;-67
2022/08/14 05:12:28;;;;;;;5.50;5.10;;;18.80;99.90;;;;;;5014448;28;20413;-68
2022/08/14 05:14:54;;;;;;;6.20;5.60;;;19.00;99.90;;;;;;5014490;28;20433;-67
2022/08/14 05:17:24;;;;;;;6.13;5.67;;;19.00;99.90;;;;;;5014511;28;20424;-67
2022/08/14 05:19:50;;;;;;;5.63;5.20;;;19.20;99.90;;;;;;5013893;28;20167;-65
2022/08/14 05:22:15;;;;;;;6.00;5.60;;;19.40;99.90;;;;;;5014273;28;20430;-65
2022/08/14 05:24:41;;;;;;;5.97;5.40;;;19.40;99.90;;;;;;5013105;28;20871;-67
2022/08/14 05:27:08;;;;;;;5.67;5.27;;;19.50;99.90;;;;;;5014463;28;20554;-65
2022/08/14 05:29:34;;;;;;;5.83;5.23;;;19.80;99.90;;;;;;5013751;28;20160;-64
2022/08/14 05:32:05;;;;;;;5.90;5.50;;;19.70;99.90;;;;;;5014079;28;20504;-64
2022/08/14 05:34:30;;;;;;;6.10;5.70;;;19.70;99.90;;;;;;5014312;28;20703;-64
2022/08/14 05:36:56;;;;;;;5.53;4.97;;;19.70;99.90;;;;;;5014245;28;20417;-63
2022/08/14 05:39:22;;;;;;;5.40;5.00;;;19.70;99.90;;;;;;5013761;28;20529;-65
2022/08/14 05:41:48;;;;;;;5.83;5.33;;;19.70;99.90;;;;;;5013289;28;20421;-64
2022/08/14 05:44:13;;;;;;;6.10;5.50;;;19.80;99.90;;;;;;5013987;28;20191;-64
2022/08/14 05:46:39;;;;;;;6.10;5.63;;;19.80;99.90;;;;;;5013860;28;20297;-64
2022/08/14 05:49:04;;;;;;;6.10;5.63;;;20.00;99.90;;;;;;5013458;28;20250;-66
2022/08/14 05:51:30;;;;;;;6.20;5.77;;;20.10;99.90;;;;;;5013795;28;20208;-65
2022/08/14 05:53:56;;;;;;;7.50;7.00;;;20.10;99.90;;;;;;5013883;28;20182;-65
2022/08/14 05:56:23;;;;;;;8.00;6.33;;;20.10;99.90;;;;;;5013753;28;20429;-65
2022/08/14 05:58:49;;;;;;;6.53;6.03;;;20.30;99.90;;;;;;5013094;28;20250;-65
2022/08/14 06:01:14;;;;;;;6.37;5.87;;;20.40;99.90;;;;;;5013701;28;20913;-67
2022/08/14 06:03:40;;;;;;;5.20;4.90;;;20.30;99.90;;;;;;5013618;28;20171;-67
2022/08/14 06:06:05;;;;;;;6.27;5.60;;;20.20;99.90;;;;;;5013438;28;20199;-68
2022/08/14 06:08:32;;;;;;;5.70;5.30;;;20.10;99.90;;;;;;5013001;28;20175;-67
2022/08/14 06:11:04;;;;;;;6.13;5.63;;;20.30;99.90;;;;;;5013513;28;20175;-67
2022/08/14 06:13:34;;;;;;;6.80;5.87;;;20.50;99.90;;;;;;5013479;28;20450;-67
2022/08/14 06:16:00;;;;;;;6.10;5.70;;;20.80;99.90;;;;;;5013346;28;20500;-67
2022/08/14 06:18:25;;;;;;;6.00;5.53;;;21.00;99.90;;;;;;5012765;28;20422;-67
2022/08/14 06:20:52;;;;;;;7.93;5.67;;;21.30;99.40;;;;;;5013250;28;20225;-64
2022/08/14 06:23:17;;;;;;;5.60;5.20;;;21.50;98.30;;;;;;5011914;28;20575;-64
2022/08/14 06:25:46;;;;;;;5.83;5.23;;;21.80;97.40;;;;;;5013099;28;20553;-67
2022/08/14 06:28:16;;;;;;;5.57;5.07;;;22.00;96.90;;;;;;5012789;28;20174;-67
2022/08/14 06:30:42;;;;;;;5.77;5.37;;;22.30;96.90;;;;;;5013143;28;20456;-66
2022/08/14 06:33:07;;;;;;;5.97;5.43;;;22.60;95.50;;;;;;5013314;28;20454;-67
2022/08/14 06:35:33;;;;;;;5.63;5.17;;;22.90;94.70;;;;;;5012990;28;20229;-67
2022/08/14 06:37:59;;;;;;;7.23;5.07;;;23.10;93.50;;;;;;5012960;28;20638;-67
2022/08/14 06:40:31;;;;;;;4.80;4.50;;;23.30;92.80;;;;;;5012529;28;20194;-66
2022/08/14 06:42:59;;;;;;;5.33;5.03;;;23.40;91.80;;;;;;5012944;28;20418;-67
2022/08/14 06:45:24;;;;;;;4.90;4.60;;;23.40;91.70;;;;;;5012733;28;20885;-67
2022/08/14 06:47:50;;;;;;;5.20;4.70;;;23.50;90.90;;;;;;5012910;28;20418;-66
2022/08/14 06:50:20;;;;;;;5.53;5.03;;;23.50;90.80;;;;;;5012431;28;20658;-67
2022/08/14 06:52:46;;;;;;;4.47;4.17;;;23.50;90.80;;;;;;5012428;28;20540;-67
2022/08/14 06:55:13;;;;;;;4.23;3.93;;;23.90;90.50;;;;;;5013019;28;20812;-66
2022/08/14 06:57:41;;;;;;;5.40;4.60;;;24.40;88.60;;;;;;5012630;28;20563;-66
2022/08/14 07:00:10;;;;;;;4.87;4.47;;;24.60;85.00;;;;;;5012090;28;20441;-66
2022/08/14 07:08:26;;;;;;;6.20;4.73;;;24.50;80.00;;;;;;5012189;28;20418;-67
2022/08/14 07:10:55;;;;;;;4.73;3.97;;;24.00;81.20;;;;;;5012547;28;20504;-66
2022/08/14 07:13:23;;;;;;;4.57;4.27;;;23.80;82.80;;;;;;5012454;28;20512;-66
2022/08/14 07:15:50;;;;;;;4.17;3.87;;;23.90;83.10;;;;;;5012465;28;20445;-66
2022/08/14 07:18:19;;;;;;;4.10;3.80;;;24.30;82.20;;;;;;5011871;28;20815;-66
2022/08/14 07:20:45;;;;;;;3.97;3.77;;;24.50;79.80;;;;;;5012354;28;20915;-66
2022/08/14 07:23:10;;;;;;;4.40;4.20;;;24.90;77.80;;;;;;5012373;28;20429;-66
2022/08/14 07:25:38;;;;;;;4.83;4.53;;;25.40;75.20;;;;;;5012298;28;20199;-66
2022/08/14 07:28:10;;;;;;;4.17;3.90;;;25.60;74.50;;;;;;5012154;28;20218;-66
2022/08/14 07:30:36;;;;;;;4.73;4.33;;;25.80;73.60;;;;;;5012093;28;20425;-66
2022/08/14 07:33:03;;;;;;;4.73;4.33;;;25.60;73.50;;;;;;5012315;28;20417;-67
2022/08/14 07:35:29;;;;;;;4.23;3.40;;;25.90;73.10;;;;;;5012139;28;20191;-67
2022/08/14 07:37:54;;;;;;;4.93;4.30;;;26.40;71.80;;;;;;5012342;28;20426;-67
2022/08/14 07:40:20;;;;;;;4.20;3.83;;;26.60;70.30;;;;;;5011561;28;20778;-67
2022/08/14 07:42:45;;;;;;;4.30;3.93;;;26.60;70.30;;;;;;5012142;28;20177;-66
2022/08/14 07:45:11;;;;;;;5.40;3.43;;;26.90;68.70;;;;;;5012158;28;20198;-67
2022/08/14 07:47:41;;;;;;;4.67;4.33;;;27.30;66.70;;;;;;5012073;28;20242;-66
2022/08/14 07:50:15;;;;;;;3.47;3.07;;;27.50;65.50;;;;;;5011393;28;20179;-66
2022/08/14 07:52:42;;;;;;;4.77;3.63;;;27.60;64.40;;;;;;5012075;28;20433;-67
2022/08/14 07:55:09;;;;;;;4.00;3.70;;;27.90;63.90;;;;;;5011945;28;20460;-66
2022/08/14 07:57:36;;;;;;;4.07;3.77;;;27.90;63.50;;;;;;5012058;28;20505;-66
2022/08/14 08:00:04;;;;;;;4.30;3.97;;;28.20;63.40;;;;;;5011350;28;20422;-67
2022/08/14 08:02:30;;;;;;;3.47;3.27;;;28.20;62.60;;;;;;5012055;28;20425;-67
2022/08/14 08:04:59;;;;;;;4.23;3.77;;;28.60;62.80;;;;;;5013922;28;20513;-65
2022/08/14 08:07:27;;;;;;;3.37;3.10;;;28.80;60.00;;;;;;5015962;28;20461;-64
2022/08/14 08:09:56;;;;;;;4.37;4.00;;;29.30;59.10;;;;;;5015365;28;20931;-64
2022/08/14 08:12:24;;;;;;;4.07;3.47;;;29.30;57.60;;;;;;5015675;28;20449;-65
2022/08/14 08:14:51;;;;;;;3.70;3.50;;;29.40;57.00;;;;;;5015522;28;20441;-64
2022/08/14 08:17:19;;;;;;;4.07;3.77;;;29.40;56.70;;;;;;5015566;28;20417;-65
2022/08/14 08:19:47;;;;;;;3.97;3.77;;;29.60;56.00;;;;;;5014914;28;20509;-65
2022/08/14 08:22:13;;;;;;;4.40;4.10;;;29.60;56.10;;;;;;5015629;28;20564;-65
2022/08/14 08:24:38;;;;;;;3.77;3.47;;;29.60;55.30;;;;;;5015438;28;20433;-65
2022/08/14 08:27:18;;;;;;;5.97;3.40;;;29.00;55.40;;;;;;5015374;28;20990;-65
2022/08/14 08:29:44;;;;;;;4.13;3.83;;;28.80;56.30;;;;;;5014752;28;20170;-65
2022/08/14 08:32:09;;;;;;;4.37;3.93;;;28.90;56.20;;;;;;5015476;28;20787;-64
2022/08/14 08:34:45;;;;;;;4.20;3.83;;;29.20;54.70;;;;;;5015353;28;20190;-65
2022/08/14 08:37:12;;;;;;;4.27;3.83;;;29.40;54.40;;;;;;5015171;28;20197;-65
2022/08/14 08:39:45;;;;;;;4.77;4.37;;;29.60;54.70;;;;;;5014395;28;20507;-65
2022/08/14 08:42:11;;;;;;;3.47;3.20;;;29.30;54.40;;;;;;5013693;28;20516;-65
2022/08/14 08:44:36;;;;;;;10.27;3.63;;;29.30;53.50;;;;;;5015041;28;20886;-65
2022/08/14 08:47:06;;;;;;;3.63;3.40;;;29.20;52.90;;;;;;5015184;28;20213;-66
2022/08/14 08:49:42;;;;;;;3.50;3.30;;;29.30;52.90;;;;;;5014328;28;20162;-66
2022/08/14 08:52:08;;;;;;;3.10;3.00;;;29.30;52.50;;;;;;5014970;28;20409;-67
2022/08/14 08:54:33;;;;;;;3.63;3.33;;;29.70;52.50;;;;;;5014632;28;20461;-65
2022/08/14 08:56:59;;;;;;;3.60;3.40;;;29.90;52.60;;;;;;5014788;28;20202;-64
2022/08/14 08:59:27;;;;;;;4.20;3.90;;;29.80;51.80;;;;;;5014125;28;20177;-64
2022/08/14 09:02:07;;;;;;;3.97;3.77;;;29.90;51.90;;;;;;5014705;28;20212;-65
2022/08/14 09:04:41;;;;;;;3.80;3.50;;;30.00;51.30;;;;;;5014674;28;20441;-65
2022/08/14 09:07:07;;;;;;;4.07;3.87;;;29.80;51.50;;;;;;5014474;28;20475;-65
2022/08/14 09:09:33;;;;;;;4.63;4.27;;;29.50;51.90;;;;;;5013897;28;20509;-67
2022/08/14 09:12:02;;;;;;;4.20;4.00;;;29.50;52.50;;;;;;5015303;28;20424;-67
2022/08/14 09:14:30;;;;;;;4.00;3.70;;;30.00;52.30;;;;;;5014500;28;20473;-65
2022/08/14 09:16:58;;;;;;;3.73;3.53;;;30.20;52.30;;;;;;5014174;28;20424;-65
2022/08/14 09:19:24;;;;;;;4.07;3.77;;;30.40;51.50;;;;;;5013642;28;20449;-65
2022/08/14 09:21:50;;;;;;;3.97;3.77;;;30.70;51.40;;;;;;5014326;28;20426;-65
2022/08/14 09:24:15;;;;;;;4.40;3.80;;;31.40;50.30;;;;;;5012686;28;20452;-65
2022/08/14 09:26:43;;;;;;;4.30;4.10;;;31.20;49.80;;;;;;5014121;28;20198;-65
2022/08/14 09:29:10;;;;;;;5.20;4.17;;;30.90;50.40;;;;;;5013482;28;20350;-65
2022/08/14 09:31:39;;;;;;;5.93;4.20;;;30.70;50.40;;;;;;5014167;28;20446;-65
2022/08/14 09:34:19;;;;;;;4.53;4.13;;;30.80;51.10;;;;;;5014063;28;20446;-65
2022/08/14 09:37:15;;;;;;;4.20;3.90;;;31.90;49.60;;;;;;5014094;28;20497;-65
2022/08/14 09:40:15;;;;;;;4.20;3.90;;;32.50;48.00;;;;;;5013281;28;20412;-65
2022/08/14 09:42:52;;;;;;;4.50;4.20;;;31.60;48.20;;;;;;5013994;28;20406;-65
2022/08/14 09:45:22;;;;;;;3.40;3.20;;;32.00;48.90;;;;;;5013779;28;20433;-64
2022/08/14 09:47:51;;;;;;;4.63;4.23;;;32.60;48.30;;;;;;5013966;28;20445;-65
2022/08/14 09:50:22;;;;;;;4.30;3.90;;;33.00;47.50;;;;;;5013251;28;20784;-65
2022/08/14 09:52:54;;;;;;;4.47;4.17;;;33.00;46.20;;;;;;5013826;28;20421;-65
2022/08/14 09:55:22;;;;;;;3.87;3.67;;;33.00;46.30;;;;;;5013587;28;20454;-65
2022/08/14 09:57:49;;;;;;;4.07;3.87;;;33.60;45.80;;;;;;5013620;28;20414;-65
2022/08/14 10:00:17;;;;;;;4.20;4.00;;;34.00;45.00;;;;;;5012962;28;20413;-65
2022/08/14 10:03:01;;;;;;;6.10;4.47;;;34.80;45.00;;;;;;5013707;28;20425;-65
2022/08/14 10:05:35;;;;;;;4.90;4.50;;;35.30;44.10;;;;;;5013551;28;20487;-65
2022/08/14 10:08:03;;;;;;;4.20;4.00;;;35.20;43.40;;;;;;5013511;28;20418;-65
2022/08/14 10:10:39;;;;;;;4.40;4.10;;;35.30;43.70;;;;;;5012750;28;20838;-65
2022/08/14 10:13:07;;;;;;;4.53;4.23;;;35.70;42.90;;;;;;5013436;28;20501;-65
2022/08/14 10:15:44;;;;;;;4.10;3.90;;;35.90;41.70;;;;;;5013277;28;20436;-65
2022/08/14 10:18:12;;;;;;;4.53;4.33;;;34.30;42.60;;;;;;5012866;28;20883;-66
2022/08/14 10:20:43;;;;;;;6.50;4.23;;;34.10;43.60;;;;;;5013302;28;20809;-65
2022/08/14 10:23:21;;;;;;;4.30;4.10;;;35.30;42.40;;;;;;5011654;28;20476;-64
2022/08/14 10:25:49;;;;;;;4.20;3.90;;;36.00;41.60;;;;;;5013219;28;20485;-65
2022/08/14 10:28:19;;;;;;;3.90;3.70;;;36.20;41.10;;;;;;5011917;28;20418;-65
2022/08/14 10:30:47;;;;;;;4.60;4.10;;;37.00;40.90;;;;;;5012862;28;20418;-65
2022/08/14 10:33:28;;;;;;;4.33;4.03;;;38.50;38.70;;;;;;5013180;28;20617;-65
2022/08/14 10:35:54;;;;;;;3.80;3.60;;;39.40;38.00;;;;;;5013134;28;20985;-65
2022/08/14 10:38:34;;;;;;;4.60;4.30;;;40.10;37.10;;;;;;5012309;28;20432;-65
2022/08/14 10:41:11;;;;;;;4.60;4.30;;;40.50;35.60;;;;;;5013064;28;20485;-65
2022/08/14 10:43:38;;;;;;;4.27;3.93;;;40.30;34.50;;;;;;5012942;28;20433;-65
2022/08/14 10:46:12;;;;;;;4.00;3.70;;;40.00;33.70;;;;;;5012802;28;20472;-66
2022/08/14 10:48:37;;;;;;;4.60;3.80;;;38.70;34.50;;;;;;5012228;28;20405;-66
2022/08/14 10:51:03;;;;;;;4.67;4.30;;;38.50;34.30;;;;;;5012814;28;20418;-65
2022/08/14 10:53:34;;;;;;;4.63;4.03;;;38.60;34.30;;;;;;5012665;28;20198;-65
2022/08/14 10:56:02;;;;;;;4.63;4.33;;;38.40;34.30;;;;;;5012674;28;20206;-65
2022/08/14 10:58:30;;;;;;;4.37;4.07;;;38.60;33.80;;;;;;5011904;28;20544;-65
2022/08/14 11:00:59;;;;;;;4.30;4.00;;;39.00;33.60;;;;;;5012635;28;20500;-64
2022/08/14 11:03:42;;;;;;;3.73;3.53;;;39.00;33.00;;;;;;5012573;28;20421;-65
2022/08/14 11:06:21;;;;;;;4.90;4.60;;;37.80;33.50;;;;;;5012496;28;20544;-65
2022/08/14 11:08:47;;;;;;;4.70;4.23;;;38.10;33.70;;;;;;5011661;28;20487;-65
2022/08/14 11:11:15;;;;;;;3.50;3.40;;;39.20;33.20;;;;;;5012502;28;20422;-66
2022/08/14 11:13:45;;;;;;;5.30;4.80;;;38.60;33.20;;;;;;5012357;28;20454;-65
2022/08/14 11:16:13;;;;;;;4.50;4.10;;;38.60;33.20;;;;;;5012463;28;20430;-65
2022/08/14 11:18:42;;;;;;;3.80;3.60;;;39.10;32.50;;;;;;5011711;28;20461;-65
2022/08/14 11:21:08;;;;;;;5.60;4.57;;;39.50;32.40;;;;;;5012250;28;20437;-65
2022/08/14 11:23:37;;;;;;;4.60;4.40;;;39.40;32.30;;;;;;5011351;28;20417;-65
2022/08/14 11:26:05;;;;;;;5.17;4.77;;;39.90;32.20;;;;;;5012126;28;20480;-65
2022/08/14 11:28:38;;;;;;;4.40;4.13;;;40.30;31.40;;;;;;5011483;28;20999;-66
2022/08/14 11:31:07;;;;;;;3.93;3.73;;;41.00;31.20;;;;;;5012170;28;20430;-66
2022/08/14 11:33:35;;;;;;;4.10;3.90;;;40.90;30.20;;;;;;5012482;28;20850;-65
2022/08/14 11:36:04;;;;;;;4.20;4.00;;;40.30;30.00;;;;;;5012010;28;20962;-65
2022/08/14 11:38:46;;;;;;;4.43;4.23;;;40.00;30.50;;;;;;5012731;28;20461;-66
2022/08/14 11:41:14;;;;;;;4.50;4.30;;;40.20;30.10;;;;;;5016330;28;20437;-66
2022/08/14 11:43:42;;;;;;;4.40;4.20;;;41.00;29.90;;;;;;5016291;28;20484;-65
2022/08/14 11:46:12;;;;;;;4.10;3.90;;;42.00;29.60;;;;;;5016173;28;20468;-65
2022/08/14 11:48:50;;;;;;;5.87;5.57;;;41.90;29.00;;;;;;5015536;28;20422;-65
2022/08/14 11:51:24;;;;;;;4.10;3.90;;;42.00;28.50;;;;;;5016094;28;20460;-64
2022/08/14 11:53:59;;;;;;;7.03;4.17;;;41.60;28.00;;;;;;5015877;28;20449;-65
2022/08/14 11:56:34;;;;;;;4.30;4.10;;;41.30;28.70;;;;;;5016059;28;20427;-65
2022/08/14 11:59:00;;;;;;;5.53;3.97;;;42.30;28.50;;;;;;5015308;28;20421;-65
2022/08/14 12:01:27;;;;;;;4.00;3.80;;;43.70;28.10;;;;;;5016022;28;20486;-65
2022/08/14 12:03:57;;;;;;;4.30;4.10;;;43.70;27.10;;;;;;5015953;28;20179;-65
2022/08/14 12:06:24;;;;;;;4.97;4.47;;;43.10;27.20;;;;;;5015749;28;20540;-65
2022/08/14 12:08:52;;;;;;;3.83;3.63;;;43.20;27.50;;;;;;5015106;28;20982;-65
2022/08/14 12:11:19;;;;;;;3.57;3.47;;;43.30;26.80;;;;;;5015818;28;20422;-66
2022/08/14 12:13:45;;;;;;;4.70;4.50;;;43.80;26.60;;;;;;5015581;28;20427;-66
2022/08/14 12:16:15;;;;;;;4.57;4.37;;;44.90;26.70;;;;;;5015703;28;20425;-65
2022/08/14 12:18:47;;;;;;;4.80;4.50;;;45.90;26.40;;;;;;5014923;28;20418;-66
2022/08/14 12:21:24;;;;;;;4.30;4.10;;;46.40;27.00;;;;;;5015545;28;20501;-66
2022/08/14 12:24:04;;;;;;;3.47;3.27;;;48.10;24.00;;;;;;5014666;28;20422;-66
2022/08/14 12:26:31;;;;;;;4.20;4.00;;;46.70;22.90;;;;;;5015395;28;20519;-66
2022/08/14 12:29:11;;;;;;;3.93;3.73;;;45.70;23.40;;;;;;5013402;28;20425;-66
2022/08/14 12:31:37;;;;;;;4.07;3.77;;;45.50;23.30;;;;;;5015617;28;20432;-66
2022/08/14 12:34:07;;;;;;;4.20;4.00;;;45.70;23.10;;;;;;5015269;28;20934;-66
2022/08/14 12:36:34;;;;;;;3.70;3.60;;;45.50;23.30;;;;;;5015261;28;20460;-66
2022/08/14 12:39:03;;;;;;;4.33;4.10;;;45.70;23.10;;;;;;5014569;28;20504;-66
2022/08/14 12:41:33;;;;;;;3.67;3.50;;;45.50;23.00;;;;;;5015243;28;20476;-65
2022/08/14 12:44:05;;;;;;;3.60;3.50;;;45.40;22.60;;;;;;5015270;28;20448;-65
2022/08/14 12:46:40;;;;;;;3.87;3.70;;;45.80;21.90;;;;;;5015129;28;20934;-65
2022/08/14 12:49:09;;;;;;;4.17;3.97;;;46.80;21.60;;;;;;5014520;28;20456;-65
2022/08/14 12:51:35;;;;;;;4.13;3.93;;;46.00;21.60;;;;;;5014275;28;20461;-65
2022/08/14 12:54:13;;;;;;;3.67;3.47;;;47.00;21.60;;;;;;5014827;28;20488;-66
2022/08/14 12:56:40;;;;;;;3.37;3.27;;;46.90;21.60;;;;;;5015608;28;20209;-65
2022/08/14 12:59:06;;;;;;;3.80;3.13;;;47.10;21.30;;;;;;5014193;28;20927;-65
2022/08/14 13:01:33;;;;;;;4.13;3.70;;;48.00;20.80;;;;;;5014949;28;20421;-65
2022/08/14 13:04:07;;;;;;;4.37;4.17;;;49.60;20.40;;;;;;5014669;28;20182;-66
2022/08/14 13:06:34;;;;;;;3.07;2.97;;;49.80;20.10;;;;;;5014851;28;20465;-65
2022/08/14 13:08:59;;;;;;;3.27;3.07;;;48.30;19.60;;;;;;5014086;28;20425;-66
2022/08/14 13:11:29;;;;;;;3.40;3.20;;;46.90;20.00;;;;;;5014724;28;20845;-64
2022/08/14 13:13:58;;;;;;;2.83;2.73;;;45.40;20.30;;;;;;5014576;28;20545;-66